Time,TemperatureF,DewpointF,PressureIn,WindDirection,WindDirectionDegrees,WindSpeedMPH,WindSpeedGustMPH,Humidity,HourlyPrecipIn,Conditions,Clouds,dailyrainin,SoftwareType,DateUTC
2013-01-14 00:09:00,39.4,11.9,30.23,NNE,26,0.0,0.0,32,0.00,,,-99.99,Weather View 32 v60,2013-01-14 08:09:00,
2013-01-14 00:19:00,40.1,11.9,30.26,NE,54,0.0,0.0,31,0.00,,,-99.99,Weather View 32 v60,2013-01-14 08:19:00,
2013-01-14 00:28:00,40.1,11.9,30.26,NE,54,0.0,0.0,31,0.00,,,-99.99,Weather View 32 v60,2013-01-14 08:28:00,
2013-01-14 00:40:00,40.5,11.4,30.26,NE,34,0.0,0.0,30,0.00,,,-99.99,Weather View 32 v60,2013-01-14 08:40:00,
2013-01-14 00:49:00,41.4,11.4,30.26,NNE,28,0.0,8.0,29,0.00,,,-99.99,Weather View 32 v60,2013-01-14 08:49:00,
2013-01-14 01:00:00,41.2,12.1,30.26,ENE,61,0.0,8.0,30,0.00,,,-99.99,Weather View 32 v60,2013-01-14 09:00:00,
2013-01-14 01:10:00,40.8,11.7,30.26,NE,37,0.0,8.0,30,0.00,,,-99.99,Weather View 32 v60,2013-01-14 09:10:00,
2013-01-14 01:19:00,41.0,11.1,30.26,NE,38,0.0,11.0,29,0.00,,,-99.99,Weather View 32 v60,2013-01-14 09:19:00,
2013-01-14 01:28:00,41.0,11.1,30.26,NE,38,0.0,11.0,29,0.00,,,-99.99,Weather View 32 v60,2013-01-14 09:28:00,
2013-01-14 01:40:00,40.5,10.7,30.26,NNW,331,0.0,11.0,29,0.00,,,-99.99,Weather View 32 v60,2013-01-14 09:40:00,
2013-01-14 01:50:00,40.5,11.4,30.29,NNE,26,0.0,11.0,30,0.00,,,-99.99,Weather View 32 v60,2013-01-14 09:50:00,
2013-01-14 02:00:00,39.9,11.0,30.29,NE,38,0.0,11.0,30,0.00,,,-99.99,Weather View 32 v60,2013-01-14 10:00:00,
2013-01-14 02:10:00,39.7,10.8,30.29,NNW,343,0.0,11.0,30,0.00,,,-99.99,Weather View 32 v60,2013-01-14 10:10:00,
2013-01-14 02:20:00,38.8,10.0,30.29,North,9,0.0,0.0,30,0.00,,,-99.99,Weather View 32 v60,2013-01-14 10:20:00,
2013-01-14 02:29:00,38.8,10.0,30.29,North,9,0.0,0.0,30,0.00,,,-99.99,Weather View 32 v60,2013-01-14 10:29:00,
2013-01-14 02:40:00,38.8,10.8,30.29,North,356,0.0,0.0,31,0.00,,,-99.99,Weather View 32 v60,2013-01-14 10:40:00,
2013-01-14 02:50:00,38.8,10.0,30.29,North,7,0.0,0.0,30,0.00,,,-99.99,Weather View 32 v60,2013-01-14 10:50:00,
2013-01-14 03:00:00,38.3,10.3,30.29,North,6,0.0,0.0,31,0.00,,,-99.99,Weather View 32 v60,2013-01-14 11:00:00,
2013-01-14 03:10:00,37.4,9.5,30.29,NE,46,0.0,0.0,31,0.00,,,-99.99,Weather View 32 v60,2013-01-14 11:10:00,
2013-01-14 03:20:00,38.1,10.1,30.29,NE,52,0.0,0.0,31,0.00,,,-99.99,Weather View 32 v60,2013-01-14 11:20:00,
2013-01-14 03:30:00,38.5,10.4,30.32,NNE,33,0.0,0.0,31,0.00,,,-99.99,Weather View 32 v60,2013-01-14 11:30:00,
2013-01-14 03:40:00,38.8,10.8,30.32,NE,50,0.0,0.0,31,0.00,,,-99.99,Weather View 32 v60,2013-01-14 11:40:00,
2013-01-14 03:50:00,39.0,10.2,30.32,ENE,64,0.0,0.0,30,0.00,,,-99.99,Weather View 32 v60,2013-01-14 11:50:00,
2013-01-14 04:00:00,39.0,10.2,30.32,ENE,75,0.0,0.0,30,0.00,,,-99.99,Weather View 32 v60,2013-01-14 12:00:00,
2013-01-14 04:10:00,38.8,10.8,30.32,NNE,19,0.0,0.0,31,0.00,,,-99.99,Weather View 32 v60,2013-01-14 12:10:00,
2013-01-14 04:20:00,38.7,10.6,30.32,NE,39,0.0,0.0,31,0.00,,,-99.99,Weather View 32 v60,2013-01-14 12:20:00,
2013-01-14 04:30:00,38.5,10.4,30.32,ENE,68,0.0,0.0,31,0.00,,,-99.99,Weather View 32 v60,2013-01-14 12:30:00,
2013-01-14 04:40:00,38.1,10.8,30.32,NNE,22,0.0,0.0,32,0.00,,,-99.99,Weather View 32 v60,2013-01-14 12:40:00,
2013-01-14 04:50:00,37.9,10.7,30.32,NE,35,0.0,0.0,32,0.00,,,-99.99,Weather View 32 v60,2013-01-14 12:50:00,
2013-01-14 05:00:00,37.2,10.0,30.32,East,85,0.0,0.0,32,0.00,,,-99.99,Weather View 32 v60,2013-01-14 13:00:00,
2013-01-14 05:10:00,36.7,9.6,30.32,East,83,0.0,0.0,32,0.00,,,-99.99,Weather View 32 v60,2013-01-14 13:10:00,
2013-01-14 05:20:00,36.9,10.4,30.32,ESE,111,0.0,0.0,33,0.00,,,-99.99,Weather View 32 v60,2013-01-14 13:20:00,
2013-01-14 05:30:00,36.1,10.4,30.32,East,84,0.0,0.0,34,0.00,,,-99.99,Weather View 32 v60,2013-01-14 13:30:00,
2013-01-14 05:40:00,36.7,10.3,30.32,East,85,0.0,0.0,33,0.00,,,-99.99,Weather View 32 v60,2013-01-14 13:40:00,
2013-01-14 05:50:00,37.0,10.6,30.32,East,94,0.0,0.0,33,0.00,,,-99.99,Weather View 32 v60,2013-01-14 13:50:00,
2013-01-14 06:00:00,37.0,10.6,30.35,NNE,31,0.0,0.0,33,0.00,,,-99.99,Weather View 32 v60,2013-01-14 14:00:00,
2013-01-14 06:10:00,36.3,9.9,30.35,NE,44,0.0,0.0,33,0.00,,,-99.99,Weather View 32 v60,2013-01-14 14:10:00,
2013-01-14 06:20:00,35.4,9.8,30.35,NE,44,0.0,0.0,34,0.00,,,-99.99,Weather View 32 v60,2013-01-14 14:20:00,
2013-01-14 06:30:00,34.5,10.3,30.35,NE,44,0.0,0.0,36,0.00,,,-99.99,Weather View 32 v60,2013-01-14 14:30:00,
2013-01-14 06:39:00,33.8,10.9,30.35,NE,44,0.0,0.0,38,0.00,,,-99.99,Weather View 32 v60,2013-01-14 14:39:00,
2013-01-14 06:49:00,33.3,11.5,30.38,NE,44,0.0,0.0,40,0.00,,,-99.99,Weather View 32 v60,2013-01-14 14:49:00,
2013-01-14 06:59:00,32.7,11.6,30.38,NE,44,0.0,0.0,41,0.00,,,-99.99,Weather View 32 v60,2013-01-14 14:59:00,
2013-01-14 07:09:00,32.4,11.8,30.38,NE,45,0.0,0.0,42,0.00,,,-99.99,Weather View 32 v60,2013-01-14 15:09:00,
2013-01-14 07:19:00,32.0,12.0,30.38,NE,45,0.0,0.0,43,0.00,,,-99.99,Weather View 32 v60,2013-01-14 15:19:00,
2013-01-14 07:29:00,32.2,12.7,30.38,NE,45,0.0,0.0,44,0.00,,,-99.99,Weather View 32 v60,2013-01-14 15:29:00,
2013-01-14 07:39:00,32.2,12.7,30.38,NE,45,0.0,0.0,44,0.00,,,-99.99,Weather View 32 v60,2013-01-14 15:39:00,
2013-01-14 07:49:00,32.4,12.9,30.38,NE,45,0.0,0.0,44,0.00,,,-99.99,Weather View 32 v60,2013-01-14 15:49:00,
2013-01-14 07:59:00,32.9,12.8,30.38,NE,45,0.0,0.0,43,0.00,,,-99.99,Weather View 32 v60,2013-01-14 15:59:00,
2013-01-14 08:09:00,34.3,13.1,30.38,East,82,0.0,0.0,41,0.00,,,-99.99,Weather View 32 v60,2013-01-14 16:09:00,
2013-01-14 08:19:00,35.8,13.8,30.41,East,86,0.0,0.0,40,0.00,,,-99.99,Weather View 32 v60,2013-01-14 16:19:00,
2013-01-14 08:29:00,36.9,14.2,30.41,ENE,65,0.0,0.0,39,0.00,,,-99.99,Weather View 32 v60,2013-01-14 16:29:00,
2013-01-14 08:39:00,37.8,14.4,30.41,ENE,66,0.0,0.0,38,0.00,,,-99.99,Weather View 32 v60,2013-01-14 16:39:00,
2013-01-14 08:50:00,38.7,14.6,30.41,East,79,0.0,0.0,37,0.00,,,-99.99,Weather View 32 v60,2013-01-14 16:50:00,
2013-01-14 08:59:00,39.6,14.8,30.41,ENE,60,0.0,0.0,36,0.00,,,-99.99,Weather View 32 v60,2013-01-14 16:59:00,
2013-01-14 09:09:00,40.5,14.3,30.41,NE,53,0.0,0.0,34,0.00,,,-99.99,Weather View 32 v60,2013-01-14 17:09:00,
2013-01-14 09:20:00,41.2,14.9,30.41,ENE,60,0.0,0.0,34,0.00,,,-99.99,Weather View 32 v60,2013-01-14 17:20:00,
2013-01-14 09:29:00,41.5,14.5,30.41,NE,35,0.0,0.0,33,0.00,,,-99.99,Weather View 32 v60,2013-01-14 17:29:00,
2013-01-14 09:40:00,41.9,14.1,30.41,ENE,62,0.0,0.0,32,0.00,,,-99.99,Weather View 32 v60,2013-01-14 17:40:00,
2013-01-14 09:50:00,41.9,14.1,30.41,ENE,73,0.0,0.0,32,0.00,,,-99.99,Weather View 32 v60,2013-01-14 17:50:00,
2013-01-14 10:00:00,41.7,14.0,30.41,NNE,27,0.0,0.0,32,0.00,,,-99.99,Weather View 32 v60,2013-01-14 18:00:00,
2013-01-14 10:10:00,42.3,14.5,30.41,ENE,72,0.0,0.0,32,0.00,,,-99.99,Weather View 32 v60,2013-01-14 18:10:00,
2013-01-14 10:20:00,43.0,15.1,30.41,NNE,17,0.0,0.0,32,0.00,,,-99.99,Weather View 32 v60,2013-01-14 18:20:00,
2013-01-14 10:30:00,43.3,14.7,30.41,East,79,0.0,0.0,31,0.00,,,-99.99,Weather View 32 v60,2013-01-14 18:30:00,
2013-01-14 10:39:00,0.0,0.0,30.41,NE,52,0.0,0.0,0,0.00,,,-99.99,Weather View 32 v60,2013-01-14 18:39:00,
2013-01-14 10:50:00,45.3,15.7,30.43,NE,45,0.0,0.0,30,0.00,,,-99.99,Weather View 32 v60,2013-01-14 18:50:00,
2013-01-14 10:59:00,45.5,15.8,30.41,NE,39,0.0,0.0,30,0.00,,,-99.99,Weather View 32 v60,2013-01-14 18:59:00,
2013-01-14 11:10:00,45.9,16.1,30.41,NE,51,0.0,0.0,30,0.00,,,-99.99,Weather View 32 v60,2013-01-14 19:10:00,
2013-01-14 11:19:00,46.2,15.7,30.41,ENE,57,0.0,0.0,29,0.00,,,-99.99,Weather View 32 v60,2013-01-14 19:19:00,
2013-01-14 11:30:00,46.2,15.7,30.41,NNE,21,0.0,4.0,29,0.00,,,-99.99,Weather View 32 v60,2013-01-14 19:30:00,
2013-01-14 11:40:00,46.8,16.1,30.41,NW,321,0.0,4.0,29,0.00,,,-99.99,Weather View 32 v60,2013-01-14 19:40:00,
2013-01-14 11:49:00,47.3,16.6,30.38,NNE,33,0.0,4.0,29,0.00,,,-99.99,Weather View 32 v60,2013-01-14 19:49:00,
2013-01-14 12:00:00,47.7,16.9,30.38,North,356,0.0,4.0,29,0.00,,,-99.99,Weather View 32 v60,2013-01-14 20:00:00,
2013-01-14 12:10:00,47.8,17.1,30.38,NE,38,0.0,4.0,29,0.00,,,-99.99,Weather View 32 v60,2013-01-14 20:10:00,
2013-01-14 12:20:00,48.0,17.2,30.38,NE,41,0.0,4.0,29,0.00,,,-99.99,Weather View 32 v60,2013-01-14 20:20:00,
2013-01-14 12:29:00,48.6,17.7,30.35,NE,38,0.0,0.0,29,0.00,,,-99.99,Weather View 32 v60,2013-01-14 20:29:00,
2013-01-14 12:40:00,48.2,17.4,30.35,East,94,0.0,0.0,29,0.00,,,-99.99,Weather View 32 v60,2013-01-14 20:40:00,
2013-01-14 12:49:00,48.9,18.0,30.38,NE,56,0.0,0.0,29,0.00,,,-99.99,Weather View 32 v60,2013-01-14 20:49:00,
2013-01-14 13:00:00,49.6,18.6,30.38,NE,53,0.0,0.0,29,0.00,,,-99.99,Weather View 32 v60,2013-01-14 21:00:00,
2013-01-14 13:09:00,50.2,19.1,30.38,ENE,60,0.0,0.0,29,0.00,,,-99.99,Weather View 32 v60,2013-01-14 21:09:00,
2013-01-14 13:20:00,49.6,18.6,30.35,East,95,0.0,0.0,29,0.00,,,-99.99,Weather View 32 v60,2013-01-14 21:20:00,
2013-01-14 13:29:00,50.2,18.3,30.35,ENE,60,0.0,0.0,28,0.00,,,-99.99,Weather View 32 v60,2013-01-14 21:29:00,
2013-01-14 13:35:00,50.2,18.3,30.35,ENE,60,0.0,0.0,28,0.00,,,-99.99,Weather View 32 v60,2013-01-14 21:35:00,
2013-01-14 13:50:00,51.8,18.8,30.35,NE,40,0.0,0.0,27,0.00,,,-99.99,Weather View 32 v60,2013-01-14 21:50:00,
2013-01-14 13:59:00,53.2,20.1,30.38,NNE,19,0.0,0.0,27,0.00,,,-99.99,Weather View 32 v60,2013-01-14 21:59:00,
2013-01-14 14:10:00,53.4,19.3,30.38,NNE,15,0.0,0.0,26,0.00,,,-99.99,Weather View 32 v60,2013-01-14 22:10:00,
2013-01-14 14:19:00,53.6,19.5,30.38,NW,310,0.0,0.0,26,0.00,,,-99.99,Weather View 32 v60,2013-01-14 22:19:00,
2013-01-14 14:30:00,53.6,19.5,30.38,NW,325,0.0,0.0,26,0.00,,,-99.99,Weather View 32 v60,2013-01-14 22:30:00,
2013-01-14 14:36:00,53.6,19.5,30.38,NW,325,0.0,0.0,26,0.00,,,-99.99,Weather View 32 v60,2013-01-14 22:36:00,
2013-01-14 14:50:00,54.5,20.3,30.38,NNE,21,0.0,0.0,26,0.00,,,-99.99,Weather View 32 v60,2013-01-14 22:50:00,
2013-01-14 15:00:00,54.0,20.7,30.38,WSW,240,0.0,0.0,27,0.00,,,-99.99,Weather View 32 v60,2013-01-14 23:00:00,
2013-01-14 15:10:00,52.3,19.3,30.38,ENE,61,0.0,0.0,27,0.00,,,-99.99,Weather View 32 v60,2013-01-14 23:10:00,
2013-01-14 15:19:00,51.3,18.4,30.38,ENE,68,0.0,0.0,27,0.00,,,-99.99,Weather View 32 v60,2013-01-14 23:19:00,
2013-01-14 15:30:00,51.3,18.4,30.38,East,86,0.0,0.0,27,0.00,,,-99.99,Weather View 32 v60,2013-01-14 23:30:00,
2013-01-14 15:36:00,51.3,18.4,30.38,East,86,0.0,0.0,27,0.00,,,-99.99,Weather View 32 v60,2013-01-14 23:36:00,
2013-01-14 15:50:00,50.5,18.6,30.38,ENE,72,0.0,0.0,28,0.00,,,-99.99,Weather View 32 v60,2013-01-14 23:50:00,
2013-01-14 16:00:00,50.4,18.4,30.38,SE,129,0.0,0.0,28,0.00,,,-99.99,Weather View 32 v60,2013-01-15 00:00:00,
2013-01-14 16:10:00,50.0,18.1,30.38,SE,133,0.0,0.0,28,0.00,,,-99.99,Weather View 32 v60,2013-01-15 00:10:00,
2013-01-14 16:20:00,49.6,17.8,30.38,SE,135,0.0,0.0,28,0.00,,,-99.99,Weather View 32 v60,2013-01-15 00:20:00,
2013-01-14 16:29:00,48.6,16.9,30.38,East,83,0.0,0.0,28,0.00,,,-99.99,Weather View 32 v60,2013-01-15 00:29:00,
2013-01-14 16:37:00,48.6,16.9,30.38,East,83,0.0,0.0,28,0.00,,,-99.99,Weather View 32 v60,2013-01-15 00:37:00,
2013-01-14 16:50:00,47.1,16.4,30.38,ENE,67,0.0,0.0,29,0.00,,,-99.99,Weather View 32 v60,2013-01-15 00:50:00,
2013-01-14 17:00:00,46.8,16.9,30.38,ENE,67,0.0,0.0,30,0.00,,,-99.99,Weather View 32 v60,2013-01-15 01:00:00,
2013-01-14 17:10:00,46.2,16.4,30.38,ENE,67,0.0,0.0,30,0.00,,,-99.99,Weather View 32 v60,2013-01-15 01:10:00,
2013-01-14 17:20:00,45.3,16.4,30.38,ENE,67,0.0,0.0,31,0.00,,,-99.99,Weather View 32 v60,2013-01-15 01:20:00,
2013-01-14 17:29:00,44.4,16.4,30.38,ENE,67,0.0,0.0,32,0.00,,,-99.99,Weather View 32 v60,2013-01-15 01:29:00,
2013-01-14 17:37:00,44.4,16.4,30.38,ENE,67,0.0,0.0,32,0.00,,,-99.99,Weather View 32 v60,2013-01-15 01:37:00,
2013-01-14 17:50:00,43.3,16.1,30.38,ENE,67,0.0,0.0,33,0.00,,,-99.99,Weather View 32 v60,2013-01-15 01:50:00,
2013-01-14 17:59:00,42.6,16.2,30.38,ENE,67,0.0,0.0,34,0.00,,,-99.99,Weather View 32 v60,2013-01-15 01:59:00,
2013-01-14 18:09:00,42.1,16.4,30.38,ENE,67,0.0,0.0,35,0.00,,,-99.99,Weather View 32 v60,2013-01-15 02:09:00,
2013-01-14 18:19:00,41.5,17.8,30.38,ENE,67,0.0,0.0,38,0.00,,,-99.99,Weather View 32 v60,2013-01-15 02:19:00,
2013-01-14 18:29:00,41.0,17.9,30.38,ENE,67,0.0,0.0,39,0.00,,,-99.99,Weather View 32 v60,2013-01-15 02:29:00,
2013-01-14 18:38:00,41.0,17.9,30.38,ENE,67,0.0,0.0,39,0.00,,,-99.99,Weather View 32 v60,2013-01-15 02:38:00,
2013-01-14 18:49:00,40.1,17.7,30.38,ENE,67,0.0,0.0,40,0.00,,,-99.99,Weather View 32 v60,2013-01-15 02:49:00,
2013-01-14 18:59:00,39.7,17.4,30.38,ENE,67,0.0,0.0,40,0.00,,,-99.99,Weather View 32 v60,2013-01-15 02:59:00,
2013-01-14 19:10:00,39.2,17.4,30.38,ENE,67,0.0,0.0,41,0.00,,,-99.99,Weather View 32 v60,2013-01-15 03:10:00,
2013-01-14 19:19:00,38.8,17.1,30.38,ENE,67,0.0,0.0,41,0.00,,,-99.99,Weather View 32 v60,2013-01-15 03:19:00,
2013-01-14 19:29:00,38.5,17.4,30.41,ENE,67,0.0,0.0,42,0.00,,,-99.99,Weather View 32 v60,2013-01-15 03:29:00,
2013-01-14 19:38:00,38.5,17.4,30.41,ENE,67,0.0,0.0,42,0.00,,,-99.99,Weather View 32 v60,2013-01-15 03:38:00,
2013-01-14 19:50:00,37.8,17.8,30.41,ENE,67,0.0,0.0,44,0.00,,,-99.99,Weather View 32 v60,2013-01-15 03:50:00,
2013-01-14 20:00:00,37.4,18.0,30.38,ENE,67,0.0,0.0,45,0.00,,,-99.99,Weather View 32 v60,2013-01-15 04:00:00,
2013-01-14 20:10:00,36.9,18.0,30.38,ENE,67,0.0,0.0,46,0.00,,,-99.99,Weather View 32 v60,2013-01-15 04:10:00,
2013-01-14 20:20:00,36.5,18.7,30.41,ENE,67,0.0,0.0,48,0.00,,,-99.99,Weather View 32 v60,2013-01-15 04:20:00,
2013-01-14 20:29:00,36.1,19.3,30.41,ENE,67,0.0,0.0,50,0.00,,,-99.99,Weather View 32 v60,2013-01-15 04:29:00,
2013-01-14 20:39:00,36.1,19.3,30.41,ENE,67,0.0,0.0,50,0.00,,,-99.99,Weather View 32 v60,2013-01-15 04:39:00,
2013-01-14 20:50:00,35.4,19.1,30.41,ENE,67,0.0,0.0,51,0.00,,,-99.99,Weather View 32 v60,2013-01-15 04:50:00,
2013-01-14 21:09:00,35.1,19.2,30.38,ENE,67,0.0,0.0,52,0.00,,,-99.99,Weather View 32 v60,2013-01-15 05:09:00,
2013-01-14 21:20:00,34.9,20.3,30.38,ENE,67,0.0,0.0,55,0.00,,,-99.99,Weather View 32 v60,2013-01-15 05:20:00,
2013-01-14 21:30:00,34.7,20.6,30.38,ENE,67,0.0,0.0,56,0.00,,,-99.99,Weather View 32 v60,2013-01-15 05:30:00,
2013-01-14 21:40:00,34.3,20.3,30.38,ENE,67,0.0,0.0,56,0.00,,,-99.99,Weather View 32 v60,2013-01-15 05:40:00,
2013-01-14 21:50:00,34.2,20.5,30.38,ENE,67,0.0,0.0,57,0.00,,,-99.99,Weather View 32 v60,2013-01-15 05:50:00,
2013-01-14 22:00:00,34.0,20.3,30.41,ENE,67,0.0,0.0,57,0.00,,,-99.99,Weather View 32 v60,2013-01-15 06:00:00,
2013-01-14 22:10:00,33.6,20.4,30.41,ENE,67,0.0,0.0,58,0.00,,,-99.99,Weather View 32 v60,2013-01-15 06:10:00,
2013-01-14 22:20:00,33.3,20.9,30.41,ENE,67,0.0,0.0,60,0.00,,,-99.99,Weather View 32 v60,2013-01-15 06:20:00,
2013-01-14 22:30:00,33.3,20.9,30.41,ENE,67,0.0,0.0,60,0.00,,,-99.99,Weather View 32 v60,2013-01-15 06:30:00,
2013-01-14 22:40:00,33.1,21.1,30.41,ENE,67,0.0,0.0,61,0.00,,,-99.99,Weather View 32 v60,2013-01-15 06:40:00,
2013-01-14 22:50:00,32.7,20.7,30.41,ENE,67,0.0,0.0,61,0.00,,,-99.99,Weather View 32 v60,2013-01-15 06:50:00,
2013-01-14 23:00:00,32.4,20.8,30.41,ENE,67,0.0,0.0,62,0.00,,,-99.99,Weather View 32 v60,2013-01-15 07:00:00,
2013-01-14 23:10:00,32.2,20.6,30.41,ENE,67,0.0,0.0,62,0.00,,,-99.99,Weather View 32 v60,2013-01-15 07:10:00,
2013-01-14 23:20:00,32.2,21.4,30.41,ENE,67,0.0,0.0,64,0.00,,,-99.99,Weather View 32 v60,2013-01-15 07:20:00,
2013-01-14 23:30:00,32.0,21.6,30.41,ENE,67,0.0,0.0,65,0.00,,,-99.99,Weather View 32 v60,2013-01-15 07:30:00,
2013-01-14 23:40:00,31.6,21.2,30.41,ENE,67,0.0,0.0,65,0.00,,,-99.99,Weather View 32 v60,2013-01-15 07:40:00,
2013-01-14 23:50:00,31.5,21.4,30.41,ENE,67,0.0,0.0,66,0.00,,,-99.99,Weather View 32 v60,2013-01-15 07:50:00,